Saint Joseph, MO (64501)

11:04 PM CDT on September 19, 2014 (GMT -0500)
KMOSTJOS3 | Change Station
CLOSE
Current Station
Personal Weather Station
Location: St Joseph, MO
Elevation: 965 ft
Nearby Weather Stations

Elev 965 ft 39.77 °N, 94.82 °W | Updated 4 minutes ago

Clear
Clear
70.7 °F
Feels Like 73 °F
N
0.0
Wind Variable Wind from NE
Gusts 0.0 mph

Today
High -- | Low -- °F
--% Chance of Precip.
Yesterday
High -- | Low -- °F
Precip. -- in
7:04 AM 7:21 PM
Waning Crescent, 15% visible
Pressure 29.91 in
Visibility 10.0 miles
Clouds Clear
Heat Index 73 °F
Dew Point 62 °F
Humidity 75%
Rainfall 0.00 in
Snow Depth Not available.
UV 0 out of 12
Pollen 5.40 out of 12
Air Quality Not available.
Flu Activity Not available.
METAR KSTJ 200353Z AUTO 20007KT 10SM CLR 21/19 A2993 RMK AO2 SLP129 T02110194

More Conditions Fewer Conditions

Pressure 29.91 in
Visibility 10.0 miles
Clouds Clear
Heat Index 73 °F
Dew Point 62 °F
Humidity 75%
Rainfall 0.00 in
Snow Depth Not available.
UV 0 out of 12
Pollen 5.40 out of 12
Air Quality Not available.
Flu Activity Not available.
METAR KSTJ 200353Z AUTO 20007KT 10SM CLR 21/19 A2993 RMK AO2 SLP129 T02110194

More Conditions Fewer Conditions

10-Day Weather Forecast

Almanac

Astronomy

Sep. 19, 2014 Rise Set
Actual Time 7:04 AM CDT 7:21 PM CDT
Civil Twilight 6:37 AM CDT 7:48 PM CDT
Nautical Twilight 6:05 AM CDT 8:19 PM CDT
Astronomical Twilight 5:33 AM CDT 8:52 PM CDT
Moon 2:50 AM CDT (9/19) 4:50 PM CDT (9/19)
Length of Visible Light 13h 11m
Length of Day
12h 17m
Tomorrow will be 2m 35s shorter.
Waning Crescent, 15% of the Moon is Illuminated
Sep 20
Waning Crescent
Sep 24
New
Oct 1
First Quarter
Oct 8
Full
Oct 15
Last Quarter

Today's Extremes

State Highs State Lows

Community

WunderPhotos

Upload Photos

1,754,777 photos uploaded!

WunderBlogs® & News

Nearby

Snow Depth

Station Depth Elevation
No new snow has been reported.

Earthquake Activity

City Distance Mag. Time & Date
No recent earthquake activity has been reported nearby.
Minimum magnitude displayed is 2.5.

Coastal Water Temperatures

Place Temperature
No Stations Reporting

Nearby Weather Stations